createdAt,value
2023-01-18T00:03:33.640Z,100.00
2023-01-18T00:06:20.875Z,100.00
2023-01-18T00:09:08.074Z,100.00
2023-01-18T00:11:55.169Z,100.00
2023-01-18T00:14:42.275Z,100.00
2023-01-18T00:17:29.361Z,100.00
2023-01-18T00:20:17.021Z,100.00
2023-01-18T00:23:04.633Z,100.00
2023-01-18T00:25:51.761Z,100.00
2023-01-18T00:28:40.166Z,100.00
2023-01-18T00:31:27.351Z,100.00
2023-01-18T00:34:14.431Z,100.00
2023-01-18T00:37:01.445Z,100.00
2023-01-18T00:39:48.531Z,100.00
2023-01-18T00:42:54.840Z,100.00
2023-01-18T00:45:43.072Z,100.00
2023-01-18T00:48:30.265Z,100.00
2023-01-18T00:51:23.248Z,100.00
2023-01-18T00:54:10.354Z,100.00
2023-01-18T00:56:57.425Z,100.00
2023-01-18T00:59:46.741Z,100.00
2023-01-18T01:02:35.477Z,100.00
2023-01-18T01:05:44.049Z,100.00
2023-01-18T01:08:31.140Z,100.00
2023-01-18T01:11:18.250Z,100.00
2023-01-18T01:14:24.314Z,100.00
2023-01-18T01:17:29.863Z,100.00
2023-01-18T01:20:35.637Z,100.00
2023-01-18T01:23:43.229Z,100.00
2023-01-18T01:26:30.302Z,100.00
2023-01-18T01:29:17.761Z,100.00
2023-01-18T01:32:06.061Z,100.00
2023-01-18T01:34:53.141Z,100.00
2023-01-18T01:37:40.248Z,100.00
2023-01-18T01:40:27.451Z,100.00
2023-01-18T01:43:14.552Z,100.00
2023-01-18T01:46:02.829Z,100.00
2023-01-18T01:48:59.353Z,100.00
2023-01-18T01:51:51.103Z,100.00
2023-01-18T01:54:50.266Z,100.00
2023-01-18T01:57:59.213Z,100.00
2023-01-18T02:00:46.424Z,100.00
2023-01-18T02:03:33.509Z,100.00
2023-01-18T02:06:32.733Z,100.00
2023-01-18T02:09:23.414Z,100.00
2023-01-18T02:12:10.520Z,100.00
2023-01-18T02:14:59.374Z,100.00
2023-01-18T02:17:54.402Z,100.00
2023-01-18T02:21:08.684Z,100.00
2023-01-18T02:24:28.089Z,100.00
2023-01-18T02:27:22.532Z,100.00
2023-01-18T02:30:14.733Z,100.00
2023-01-18T02:33:10.911Z,100.00
2023-01-18T02:36:04.002Z,100.00
2023-01-18T02:38:56.146Z,100.00
2023-01-18T02:42:07.421Z,100.00
2023-01-18T02:45:12.992Z,100.00
2023-01-18T02:48:01.024Z,100.00
2023-01-18T02:50:48.543Z,100.00
2023-01-18T02:53:41.458Z,100.00
2023-01-18T02:56:44.012Z,100.00
2023-01-18T02:59:41.480Z,100.00
2023-01-18T03:02:28.732Z,100.00
2023-01-18T03:05:16.954Z,100.00
2023-01-18T03:08:11.251Z,100.00
2023-01-18T03:11:04.922Z,100.00
2023-01-18T03:14:01.793Z,100.00
2023-01-18T03:16:58.116Z,100.00
2023-01-18T03:20:05.954Z,100.00
2023-01-18T03:23:24.756Z,100.00
2023-01-18T03:26:16.546Z,100.00
2023-01-18T03:29:24.233Z,100.00
2023-01-18T03:32:33.944Z,100.00
2023-01-18T03:35:27.300Z,100.00
2023-01-18T03:38:16.584Z,100.00
2023-01-18T03:41:05.315Z,100.00
2023-01-18T03:43:55.004Z,100.00
2023-01-18T03:46:43.964Z,100.00
2023-01-18T03:49:33.419Z,100.00
2023-01-18T03:52:40.788Z,100.00
2023-01-18T03:55:56.729Z,100.00
2023-01-18T03:58:45.783Z,100.00
2023-01-18T04:01:33.065Z,100.00
2023-01-18T04:04:20.253Z,100.00
2023-01-18T04:07:07.432Z,100.00
2023-01-18T04:09:54.567Z,100.00
2023-01-18T04:12:41.705Z,100.00
2023-01-18T04:15:28.791Z,100.00
2023-01-18T04:18:16.047Z,100.00
2023-01-18T04:21:03.106Z,100.00
2023-01-18T04:23:50.282Z,100.00
2023-01-18T04:26:38.028Z,100.00
2023-01-18T04:29:25.189Z,100.00
2023-01-18T04:32:12.290Z,100.00
2023-01-18T04:34:59.304Z,100.00
2023-01-18T04:37:52.465Z,100.00
2023-01-18T04:40:39.609Z,100.00
2023-01-18T04:43:26.701Z,100.00
2023-01-18T04:46:15.470Z,100.00
2023-01-18T04:49:02.608Z,100.00
2023-01-18T04:51:49.686Z,100.00
2023-01-18T04:54:36.909Z,100.00
2023-01-18T04:57:23.996Z,100.00
2023-01-18T05:00:15.880Z,100.00
2023-01-18T05:03:02.974Z,100.00
2023-01-18T05:05:50.041Z,100.00
2023-01-18T05:08:41.126Z,100.00
2023-01-18T05:11:28.304Z,100.00
2023-01-18T05:14:15.337Z,100.00
2023-01-18T05:17:02.596Z,100.00
2023-01-18T05:19:49.733Z,100.00
2023-01-18T05:22:37.393Z,100.00
2023-01-18T05:25:24.615Z,100.00
2023-01-18T05:28:11.850Z,100.00
2023-01-18T05:30:58.947Z,100.00
2023-01-18T05:33:45.993Z,100.00
2023-01-18T05:36:33.128Z,100.00
2023-01-18T05:39:20.180Z,100.00
2023-01-18T05:42:07.452Z,100.00
2023-01-18T05:44:54.557Z,100.00
2023-01-18T05:47:41.811Z,100.00
2023-01-18T05:50:28.871Z,100.00
2023-01-18T05:53:19.216Z,100.00
2023-01-18T05:56:07.972Z,100.00
2023-01-18T05:58:55.098Z,100.00
2023-01-18T06:01:42.688Z,100.00
2023-01-18T06:04:29.808Z,100.00
2023-01-18T06:07:17.180Z,100.00
2023-01-18T06:10:05.118Z,100.00
2023-01-18T06:12:52.230Z,100.00
2023-01-18T06:15:39.544Z,100.00
2023-01-18T06:18:29.995Z,100.00
2023-01-18T06:21:18.095Z,100.00
2023-01-18T06:24:06.556Z,100.00
2023-01-18T06:26:54.656Z,100.00
2023-01-18T06:32:52.301Z,100.00
2023-01-18T06:35:39.784Z,100.00
2023-01-18T06:38:27.032Z,100.00
2023-01-18T06:41:15.416Z,100.00
2023-01-18T06:44:02.466Z,100.00
2023-01-18T06:46:49.508Z,100.00
2023-01-18T06:49:36.551Z,100.00
2023-01-18T06:52:25.891Z,100.00
2023-01-18T06:55:14.564Z,100.00
2023-01-18T06:58:02.789Z,100.00
2023-01-18T07:00:50.042Z,100.00
2023-01-18T07:03:43.211Z,100.00
2023-01-18T07:06:30.425Z,100.00
2023-01-18T07:09:17.551Z,100.00
2023-01-18T07:12:04.960Z,100.00
2023-01-18T07:14:52.045Z,100.00
2023-01-18T07:17:39.138Z,100.00
2023-01-18T07:20:26.212Z,100.00
2023-01-18T07:23:13.242Z,100.00
2023-01-18T07:26:12.629Z,100.00
2023-01-18T07:29:00.177Z,100.00
2023-01-18T07:31:47.390Z,100.00
2023-01-18T07:34:34.561Z,100.00
2023-01-18T07:37:21.591Z,100.00
2023-01-18T07:40:10.720Z,100.00
2023-01-18T07:42:58.651Z,100.00
2023-01-18T07:45:53.982Z,100.00
2023-01-18T07:48:41.085Z,100.00
2023-01-18T07:51:28.283Z,100.00
2023-01-18T07:54:17.320Z,100.00
2023-01-18T07:57:04.398Z,100.00
2023-01-18T07:59:51.868Z,100.00
2023-01-18T08:02:39.172Z,100.00
2023-01-18T08:05:27.859Z,100.00
2023-01-18T08:08:17.008Z,100.00
2023-01-18T08:11:06.443Z,100.00
2023-01-18T08:13:53.588Z,100.00
2023-01-18T08:16:40.657Z,100.00
2023-01-18T08:19:27.759Z,100.00
2023-01-18T08:22:14.840Z,100.00
2023-01-18T08:25:02.546Z,100.00
2023-01-18T08:27:49.723Z,100.00
2023-01-18T08:30:42.876Z,100.00
2023-01-18T08:33:30.039Z,100.00
2023-01-18T08:36:23.633Z,100.00
2023-01-18T08:39:12.956Z,100.00
2023-01-18T08:41:59.997Z,100.00
2023-01-18T08:44:48.694Z,100.00
2023-01-18T08:47:36.117Z,100.00
2023-01-18T08:50:23.470Z,100.00
2023-01-18T08:53:10.677Z,100.00
2023-01-18T08:55:58.284Z,100.00
2023-01-18T08:58:45.429Z,100.00
2023-01-18T09:01:32.658Z,100.00
2023-01-18T09:04:19.768Z,100.00
2023-01-18T09:07:06.877Z,100.00
2023-01-18T09:09:53.972Z,100.00
2023-01-18T09:12:41.071Z,100.00
2023-01-18T09:15:29.407Z,100.00
2023-01-18T09:18:16.443Z,100.00
2023-01-18T09:21:08.941Z,100.00
2023-01-18T09:23:56.036Z,100.00
2023-01-18T09:26:45.243Z,100.00
2023-01-18T09:29:32.500Z,100.00
2023-01-18T09:32:21.293Z,100.00
2023-01-18T09:35:08.794Z,100.00
2023-01-18T09:37:57.043Z,100.00
2023-01-18T09:40:45.473Z,100.00
2023-01-18T09:43:39.814Z,100.00
2023-01-18T09:46:28.257Z,100.00
2023-01-18T09:49:46.203Z,100.00
2023-01-18T09:52:33.176Z,100.00
2023-01-18T09:55:36.910Z,100.00
2023-01-18T09:59:21.006Z,100.00
2023-01-18T10:02:19.929Z,100.00
2023-01-18T10:05:11.054Z,100.00
2023-01-18T10:08:13.553Z,100.00
2023-01-18T10:11:09.983Z,100.00
2023-01-18T10:14:15.392Z,100.00
2023-01-18T10:17:11.788Z,100.00
2023-01-18T10:20:00.837Z,100.00
2023-01-18T10:23:15.742Z,100.00
2023-01-18T10:26:09.371Z,100.00
2023-01-18T10:29:12.574Z,100.00
2023-01-18T10:32:12.785Z,100.00
2023-01-18T10:35:00.571Z,100.00
2023-01-18T10:37:47.758Z,100.00
2023-01-18T10:40:37.766Z,100.00
2023-01-18T10:43:27.244Z,100.00
2023-01-18T10:46:17.164Z,100.00
2023-01-18T10:49:04.596Z,100.00
2023-01-18T10:51:51.756Z,100.00
2023-01-18T10:54:40.483Z,100.00
2023-01-18T10:57:35.014Z,100.00
2023-01-18T11:00:35.367Z,100.00
2023-01-18T11:03:23.443Z,100.00
2023-01-18T11:06:11.215Z,100.00
2023-01-18T11:08:58.248Z,100.00
2023-01-18T11:12:03.635Z,100.00
2023-01-18T11:14:50.712Z,100.00
2023-01-18T11:17:37.778Z,100.00
2023-01-18T11:20:30.189Z,100.00
2023-01-18T11:23:35.797Z,100.00
2023-01-18T11:26:24.154Z,95.67
2023-01-18T11:29:14.995Z,96.55
2023-01-18T11:32:09.700Z,96.99
2023-01-18T11:35:00.336Z,93.98
2023-01-18T11:37:49.031Z,94.06
2023-01-18T11:40:36.252Z,91.26
2023-01-18T11:43:28.020Z,92.44
2023-01-18T11:46:30.302Z,88.55
2023-01-18T11:49:26.390Z,89.14
2023-01-18T11:52:24.144Z,91.63
2023-01-18T11:55:23.785Z,90.60
2023-01-18T11:58:30.220Z,91.40
2023-01-18T12:01:46.073Z,91.02
2023-01-18T12:05:10.707Z,92.24
2023-01-18T12:07:59.422Z,90.91
2023-01-18T12:11:11.328Z,91.19
2023-01-18T12:14:06.195Z,87.41
2023-01-18T12:17:14.545Z,95.18
2023-01-18T12:20:27.465Z,97.60
2023-01-18T12:23:49.300Z,93.35
2023-01-18T12:27:29.829Z,98.73
2023-01-18T12:30:28.942Z,94.35
2023-01-18T12:33:42.548Z,94.53
2023-01-18T12:37:01.888Z,89.06
2023-01-18T12:40:10.608Z,88.44
2023-01-18T12:43:11.799Z,91.35
2023-01-18T12:46:07.599Z,88.64
2023-01-18T12:49:22.108Z,88.90
2023-01-18T12:52:18.865Z,88.49
2023-01-18T12:55:08.401Z,90.36
2023-01-18T12:58:01.419Z,89.41
2023-01-18T13:01:02.713Z,90.83
2023-01-18T13:03:54.121Z,90.22
2023-01-18T13:06:42.929Z,87.06
2023-01-18T13:09:37.187Z,89.29
2023-01-18T13:12:25.755Z,85.55
2023-01-18T13:15:21.974Z,85.53
2023-01-18T13:18:37.486Z,85.86
2023-01-18T13:21:57.032Z,86.46
2023-01-18T13:25:09.214Z,89.19
2023-01-18T13:28:05.812Z,92.02
2023-01-18T13:31:02.194Z,94.15
2023-01-18T13:33:57.599Z,89.83
2023-01-18T13:36:46.678Z,80.59
2023-01-18T13:39:44.905Z,80.12
2023-01-18T13:42:38.346Z,80.30
2023-01-18T13:45:29.095Z,78.89
2023-01-18T13:48:41.653Z,79.00
2023-01-18T13:51:40.908Z,80.00
2023-01-18T13:54:28.700Z,75.99
2023-01-18T13:57:19.079Z,78.25
2023-01-18T14:00:07.636Z,79.44
2023-01-18T14:03:06.360Z,76.71
2023-01-18T14:05:57.299Z,77.10
2023-01-18T14:09:07.364Z,81.97
2023-01-18T14:11:57.131Z,82.28
2023-01-18T14:14:54.675Z,82.10
2023-01-18T14:17:57.740Z,85.21
2023-01-18T14:20:51.996Z,88.46
2023-01-18T14:24:02.534Z,95.16
2023-01-18T14:26:53.911Z,94.67
2023-01-18T14:29:49.664Z,93.94
2023-01-18T14:32:47.337Z,94.42
2023-01-18T14:38:21.939Z,100.00
2023-01-18T14:41:24.506Z,100.00
2023-01-18T14:44:48.684Z,100.00
2023-01-18T14:47:45.053Z,100.00
2023-01-18T14:50:36.571Z,100.00
2023-01-18T14:53:27.164Z,100.00
2023-01-18T14:56:16.952Z,100.00
2023-01-18T14:59:24.582Z,100.00
2023-01-18T15:02:19.184Z,100.00
2023-01-18T15:05:21.059Z,100.00
2023-01-18T15:08:10.482Z,100.00
2023-01-18T15:10:58.481Z,100.00
2023-01-18T15:13:50.467Z,100.00
2023-01-18T15:16:37.880Z,100.00
2023-01-18T15:19:33.557Z,100.00
2023-01-18T15:22:24.481Z,100.00
2023-01-18T15:25:24.500Z,100.00
2023-01-18T15:28:23.306Z,100.00
2023-01-18T15:31:16.544Z,100.00
2023-01-18T15:34:03.901Z,100.00
2023-01-18T15:36:51.411Z,100.00
2023-01-18T15:39:58.268Z,100.00
2023-01-18T15:42:50.196Z,100.00
2023-01-18T15:45:40.706Z,100.00
2023-01-18T15:48:34.183Z,100.00
2023-01-18T15:51:22.951Z,100.00
2023-01-18T15:54:18.446Z,100.00
2023-01-18T15:57:18.110Z,100.00
2023-01-18T16:00:06.070Z,100.00
2023-01-18T16:02:53.588Z,100.00
2023-01-18T16:05:40.673Z,100.00
2023-01-18T16:08:27.842Z,100.00
2023-01-18T16:11:33.718Z,100.00
2023-01-18T16:14:33.406Z,100.00
2023-01-18T16:17:23.089Z,100.00
2023-01-18T16:20:16.924Z,100.00
2023-01-18T16:23:18.100Z,100.00
2023-01-18T16:26:05.975Z,100.00
2023-01-18T16:28:53.675Z,100.00
2023-01-18T16:31:43.983Z,100.00
2023-01-18T16:34:31.083Z,100.00
2023-01-18T16:37:18.795Z,100.00
2023-01-18T16:40:06.796Z,100.00
2023-01-18T16:43:03.941Z,100.00
2023-01-18T16:45:54.924Z,100.00
2023-01-18T16:48:42.409Z,100.00
2023-01-18T16:51:33.662Z,100.00
2023-01-18T16:54:21.045Z,100.00
2023-01-18T16:57:18.713Z,100.00
2023-01-18T17:00:21.290Z,100.00
2023-01-18T17:03:08.421Z,100.00
2023-01-18T17:05:56.117Z,100.00
2023-01-18T17:08:44.112Z,100.00
2023-01-18T17:11:31.327Z,100.00
2023-01-18T17:14:19.806Z,100.00
2023-01-18T17:17:11.224Z,100.00
2023-01-18T17:19:59.131Z,100.00
2023-01-18T17:22:46.631Z,100.00
2023-01-18T17:25:37.401Z,100.00
2023-01-18T17:28:26.807Z,100.00
2023-01-18T17:31:14.680Z,100.00
2023-01-18T17:34:02.428Z,100.00
2023-01-18T17:36:49.652Z,100.00
2023-01-18T17:39:49.651Z,100.00
2023-01-18T17:42:38.662Z,100.00
2023-01-18T17:45:27.653Z,100.00
2023-01-18T17:48:15.422Z,100.00
2023-01-18T17:51:10.253Z,100.00
2023-01-18T17:54:00.698Z,100.00
2023-01-18T17:56:48.304Z,100.00
2023-01-18T17:59:37.065Z,100.00
2023-01-18T18:02:25.867Z,100.00
2023-01-18T18:05:13.575Z,100.00
2023-01-18T18:08:01.594Z,100.00
2023-01-18T18:10:49.784Z,100.00
2023-01-18T18:13:38.283Z,100.00
2023-01-18T18:16:26.517Z,100.00
2023-01-18T18:19:15.321Z,100.00
2023-01-18T18:22:04.891Z,100.00
2023-01-18T18:24:55.522Z,100.00
2023-01-18T18:27:47.048Z,100.00
2023-01-18T18:30:35.227Z,100.00
2023-01-18T18:33:23.534Z,100.00
2023-01-18T18:36:11.711Z,100.00
2023-01-18T18:39:06.965Z,100.00
2023-01-18T18:41:55.067Z,100.00
2023-01-18T18:44:42.929Z,100.00
2023-01-18T18:47:30.831Z,100.00
2023-01-18T18:50:19.175Z,100.00
2023-01-18T18:53:06.683Z,100.00
2023-01-18T18:56:00.737Z,100.00
2023-01-18T18:58:51.693Z,100.00
2023-01-18T19:01:40.178Z,100.00
2023-01-18T19:04:28.458Z,100.00
2023-01-18T19:07:18.833Z,100.00
2023-01-18T19:10:07.582Z,100.00
2023-01-18T19:12:55.951Z,100.00
2023-01-18T19:15:51.851Z,100.00
2023-01-18T19:18:41.299Z,100.00
2023-01-18T19:21:29.393Z,100.00
2023-01-18T19:24:18.415Z,100.00
2023-01-18T19:27:06.661Z,100.00
2023-01-18T19:29:56.163Z,100.00
2023-01-18T19:32:43.936Z,100.00
2023-01-18T19:35:32.135Z,100.00
2023-01-18T19:38:20.274Z,100.00
2023-01-18T19:41:11.727Z,100.00
2023-01-18T19:43:59.468Z,100.00
2023-01-18T19:46:47.488Z,100.00
2023-01-18T19:49:35.455Z,100.00
2023-01-18T19:52:24.009Z,100.00
2023-01-18T19:55:11.412Z,100.00
2023-01-18T19:58:01.556Z,100.00
2023-01-18T20:00:49.740Z,100.00
2023-01-18T20:03:37.663Z,100.00
2023-01-18T20:06:25.711Z,100.00
2023-01-18T20:09:19.902Z,100.00
2023-01-18T20:12:10.360Z,100.00
2023-01-18T20:15:00.693Z,100.00
2023-01-18T20:17:48.518Z,100.00
2023-01-18T20:20:37.641Z,100.00
2023-01-18T20:23:25.644Z,100.00
2023-01-18T20:26:20.035Z,100.00
2023-01-18T20:29:14.580Z,100.00
2023-01-18T20:32:15.184Z,100.00
2023-01-18T20:35:04.004Z,100.00
2023-01-18T20:37:53.792Z,100.00
2023-01-18T20:40:41.741Z,100.00
2023-01-18T20:43:30.650Z,100.00
2023-01-18T20:46:18.289Z,100.00
2023-01-18T20:49:06.040Z,100.00
2023-01-18T20:51:53.778Z,100.00
2023-01-18T20:54:42.092Z,100.00
2023-01-18T20:57:33.130Z,100.00
2023-01-18T21:00:21.221Z,100.00
2023-01-18T21:03:10.770Z,100.00
2023-01-18T21:05:58.094Z,100.00
2023-01-18T21:08:46.613Z,100.00
2023-01-18T21:11:33.756Z,100.00
2023-01-18T21:14:21.515Z,100.00
2023-01-18T21:17:09.461Z,100.00
2023-01-18T21:19:56.830Z,100.00
2023-01-18T21:22:44.320Z,100.00
2023-01-18T21:25:31.464Z,100.00
2023-01-18T21:28:19.772Z,100.00
2023-01-18T21:31:07.842Z,100.00
2023-01-18T21:33:55.192Z,100.00
2023-01-18T21:36:42.238Z,100.00
2023-01-18T21:39:29.385Z,100.00
2023-01-18T21:42:34.925Z,100.00
2023-01-18T21:45:40.661Z,100.00
2023-01-18T21:48:30.326Z,100.00
2023-01-18T21:51:36.050Z,100.00
2023-01-18T21:54:23.344Z,100.00
2023-01-18T21:57:10.438Z,100.00
2023-01-18T21:59:57.567Z,100.00
2023-01-18T22:02:44.634Z,100.00
2023-01-18T22:05:31.864Z,100.00
2023-01-18T22:08:18.946Z,100.00
2023-01-18T22:11:06.083Z,100.00
2023-01-18T22:13:53.230Z,100.00
2023-01-18T22:16:40.547Z,100.00
2023-01-18T22:19:27.643Z,100.00
2023-01-18T22:22:15.227Z,100.00
2023-01-18T22:25:02.432Z,100.00
2023-01-18T22:27:49.680Z,100.00
2023-01-18T22:30:36.772Z,100.00
2023-01-18T22:33:23.975Z,100.00
2023-01-18T22:39:14.025Z,100.00
2023-01-18T22:42:01.147Z,100.00
2023-01-18T22:44:48.231Z,100.00
2023-01-18T22:47:35.273Z,100.00
2023-01-18T22:50:22.410Z,100.00
2023-01-18T22:53:09.543Z,100.00
2023-01-18T22:56:02.994Z,100.00
2023-01-18T22:58:50.645Z,100.00
2023-01-18T23:01:37.679Z,100.00
2023-01-18T23:04:24.901Z,100.00
2023-01-18T23:07:14.297Z,100.00
2023-01-18T23:10:01.498Z,100.00
2023-01-18T23:12:48.574Z,100.00
2023-01-18T23:15:54.235Z,100.00
2023-01-18T23:18:41.447Z,100.00
2023-01-18T23:21:28.479Z,100.00
2023-01-18T23:24:15.805Z,100.00
2023-01-18T23:27:04.591Z,100.00
2023-01-18T23:29:57.321Z,100.00
2023-01-18T23:32:44.689Z,100.00
2023-01-18T23:35:31.764Z,100.00
2023-01-18T23:38:18.824Z,100.00
2023-01-18T23:41:24.791Z,100.00
2023-01-18T23:44:30.615Z,100.00
2023-01-18T23:47:36.204Z,100.00
2023-01-18T23:50:42.288Z,100.00
2023-01-18T23:53:47.880Z,100.00
2023-01-18T23:56:35.180Z,100.00
2023-01-18T23:59:22.356Z,100.00
